Concerto — JJ3855 — position and weather

sailwx.info

Track history (hours):
 
Tides and Currents Weather Stations Pressure Air Temp Water Temp Dewpoint Dewpoint Depression Visibility Wind Speed Wind Dir Waves Ship Positions

Concerto

Last reported at 2016-May-30 08:33 UTC. Time now 2016-May-30 08:48 UTC.
Position N 34°37' E 135°07'.

Length 74 m; draft 3 m.

Type: Passenger vessel. MMSI: 431000448.

Date/timePositionNaut miles runAvg speedWind from/ knotsBaromVisibWave heightAir tempDewpointWater temp
2016-May-30 08:33N 34°37' E 135°07'5 5.0
2016-May-30 07:33N 34°41' E 135°11'3 2.5
2016-May-30 06:33N 34°38' E 135°11'3 2.5
2016-May-30 05:33N 34°41' E 135°11'1 1.5
2016-May-30 04:33N 34°39' E 135°11'2 1.9
2016-May-30 03:33N 34°38' E 135°10'3 3.0
2016-May-30 02:33N 34°41' E 135°11'0 0.0
2016-May-30 01:33N 34°41' E 135°11'0 0.0
2016-May-30 00:33N 34°41' E 135°11'0 0.0
2016-May-29 23:33N 34°41' E 135°11'0 0.0
2016-May-29 22:21N 34°41' E 135°11'0 0.0
2016-May-29 21:33N 34°41' E 135°11'0 0.0
2016-May-29 20:33N 34°41' E 135°11'0 0.0
2016-May-29 19:27N 34°41' E 135°11'0 0.0
2016-May-29 18:33N 34°41' E 135°11'0 0.0
2016-May-29 17:33N 34°41' E 135°11'0 0.0
2016-May-29 16:33N 34°41' E 135°11'0 0.0
2016-May-29 15:33N 34°41' E 135°11'0 0.0
2016-May-29 14:33N 34°41' E 135°11'0 0.0
2016-May-29 13:33N 34°41' E 135°11'0 0.0
2016-May-29 12:33N 34°41' E 135°11'3 3.5
2016-May-29 11:33N 34°38' E 135°09'0 0.4
2016-May-29 10:33N 34°38' E 135°09'3 3.1
2016-May-29 09:29N 34°41' E 135°11'5 5.5
2016-May-29 08:33N 34°37' E 135°07'5 4.8
2016-May-29 07:29N 34°41' E 135°11'2 2.7
2016-May-29 06:33N 34°38' E 135°11'2 2.5
2016-May-29 05:33N 34°41' E 135°11'2 1.7
2016-May-29 04:33N 34°39' E 135°11'2 1.8
2016-May-29 03:33N 34°38' E 135°10'3 3.0
2016-May-29 02:32N 34°41' E 135°11'0 0.0
2016-May-29 01:32N 34°41' E 135°11'0 0.0
2016-May-29 00:26N 34°41' E 135°11'0 0.0
2016-May-28 23:26N 34°41' E 135°11'0 0.0
2016-May-28 22:32N 34°41' E 135°11'0 0.0
2016-May-28 21:32N 34°41' E 135°11'0 0.0
2016-May-28 20:32N 34°41' E 135°11'0 0.0
2016-May-28 19:32N 34°41' E 135°11'0 0.0
2016-May-28 18:14N 34°41' E 135°11'0 0.0
2016-May-28 17:32N 34°41' E 135°11'0 0.0
2016-May-28 16:32N 34°41' E 135°11'0 0.0
2016-May-28 15:32N 34°41' E 135°11'0 0.0
2016-May-28 14:32N 34°41' E 135°11'0 0.0
2016-May-28 13:32N 34°41' E 135°11'0 0.0
2016-May-28 12:32N 34°41' E 135°11'4 3.9
2016-May-28 11:33N 34°37' E 135°09'0 0.4
2016-May-28 10:34N 34°38' E 135°09'3 2.9
2016-May-28 09:24N 34°41' E 135°11'5 5.9
2016-May-28 08:33N 34°37' E 135°07'5 5.0
2016-May-28 07:33N 34°41' E 135°11'2 2.3
2016-May-28 06:33N 34°39' E 135°11'2 2.3
2016-May-28 05:33N 34°41' E 135°11'2 1.5
2016-May-28 04:33N 34°39' E 135°11'2 2.3
2016-May-28 03:33N 34°38' E 135°09'3 3.0
2016-May-28 02:29N 34°41' E 135°11'0 0.0
2016-May-27 12:29N 34°41' E 135°11'4 3.8
2016-May-27 11:33N 34°38' E 135°09'0 0.3
2016-May-27 10:34N 34°38' E 135°09'3 3.2
2016-May-27 09:32N 34°41' E 135°11'5 5.1
2016-May-27 08:34N 34°37' E 135°08'5 4.8
2016-May-27 07:32N 34°41' E 135°11'3 2.6
2016-May-27 06:33N 34°38' E 135°11'3 2.6
2016-May-27 05:33N 34°41' E 135°11'2 1.6
2016-May-27 04:34N 34°39' E 135°11'2 1.9
2016-May-27 03:34N 34°38' E 135°10'3 2.9
2016-May-27 02:29N 34°41' E 135°11'0 0.0
2016-May-27 01:29N 34°41' E 135°11'0 0.0
2016-May-27 00:29N 34°41' E 135°11'0 0.0
2016-May-26 23:29N 34°41' E 135°11'0 0.0
2016-May-26 22:29N 34°41' E 135°11'0 0.0
2016-May-26 21:29N 34°41' E 135°11'0 0.0
2016-May-26 20:29N 34°41' E 135°11'0 0.0
2016-May-26 19:23N 34°41' E 135°11'0 0.0
2016-May-26 18:29N 34°41' E 135°11'0 0.0
2016-May-26 17:29N 34°41' E 135°11'0 0.0
2016-May-26 16:29N 34°41' E 135°11'0 0.0
2016-May-26 15:29N 34°41' E 135°11'0 0.0
2016-May-26 14:29N 34°41' E 135°11'0 0.0
2016-May-26 13:29N 34°41' E 135°11'0 0.0
2016-May-26 12:29N 34°41' E 135°11'3 3.4
2016-May-26 11:33N 34°38' E 135°10'1 0.6
2016-May-26 10:34N 34°38' E 135°11'3 2.5
2016-May-26 09:30N 34°41' E 135°11'5 5.2
2016-May-26 08:33N 34°37' E 135°07'5 4.6
2016-May-26 07:29N 34°41' E 135°11'2 2.6
2016-May-26 06:33N 34°38' E 135°11'2 2.4
2016-May-26 05:33N 34°41' E 135°11'2 1.9
2016-May-26 04:33N 34°39' E 135°11'2 1.9
2016-May-26 03:33N 34°38' E 135°10'3 2.6
2016-May-26 02:16N 34°41' E 135°11'0 0.0
2016-May-26 01:28N 34°41' E 135°11'0 0.0
2016-May-26 00:28N 34°41' E 135°11'0 0.0
2016-May-25 23:28N 34°41' E 135°11'0 0.0
2016-May-25 22:28N 34°41' E 135°11'0 0.0
2016-May-25 21:28N 34°41' E 135°11'0 0.0
2016-May-25 20:28N 34°41' E 135°11'0 0.0
2016-May-25 19:28N 34°41' E 135°11'0 0.0
2016-May-25 18:28N 34°41' E 135°11'0 0.0
2016-May-25 17:28N 34°41' E 135°11'0 0.0
2016-May-25 16:28N 34°41' E 135°11'0 0.0
2016-May-25 15:28N 34°41' E 135°11'0 0.0
2016-May-25 14:28N 34°41' E 135°11'0 0.0
2016-May-25 13:28N 34°41' E 135°11'0 0.0
2016-May-25 12:28N 34°41' E 135°11'3 3.7
2016-May-25 11:33N 34°38' E 135°10'0 0.2
2016-May-25 10:33N 34°38' E 135°09'3 3.3
2016-May-25 09:31N 34°41' E 135°11'5 5.2
2016-May-25 08:33N 34°37' E 135°07'5 5.1
2016-May-25 07:33N 34°41' E 135°11'2 2.3
2016-May-25 06:33N 34°39' E 135°11'2 2.3
2016-May-25 05:33N 34°41' E 135°11'2 2.0
2016-May-25 04:33N 34°39' E 135°11'2 1.9
2016-May-25 03:33N 34°38' E 135°09'1 0.0
2016-May-24 11:33N 34°38' E 135°10'1 0.6
2016-May-24 10:33N 34°38' E 135°10'3 2.6
2016-May-24 09:32N 34°41' E 135°11'4 4.0
2016-May-24 08:33N 34°37' E 135°09'4 3.1
2016-May-24 07:18N 34°41' E 135°11'2 2.7
2016-May-24 06:33N 34°39' E 135°11'2 2.0
2016-May-24 05:33N 34°41' E 135°11'2 1.6
2016-May-24 04:33N 34°39' E 135°11'2 1.7
2016-May-24 03:33N 34°38' E 135°10'3 2.9
2016-May-24 02:30N 34°41' E 135°11'4 0.2
2016-May-23 11:33N 34°38' E 135°10'1 0.6
2016-May-23 10:33N 34°38' E 135°09'3 2.8
2016-May-23 09:28N 34°41' E 135°11'5 5.2
2016-May-23 08:33N 34°37' E 135°07'5 4.7
2016-May-23 07:33N 34°41' E 135°11'2 2.4
2016-May-23 06:33N 34°38' E 135°11'2 2.3
2016-May-23 05:33N 34°41' E 135°11'2 1.8
2016-May-23 04:32N 34°39' E 135°11'2 1.8
2016-May-23 03:33N 34°38' E 135°10'3 2.9
2016-May-23 02:28N 34°41' E 135°11'4 0.3
2016-May-22 11:33N 34°37' E 135°09'1 1.2
2016-May-22 10:33N 34°38' E 135°10'3 3.0
2016-May-22 09:32N 34°41' E 135°11'5 5.0
2016-May-22 08:33N 34°37' E 135°07'5 4.9
2016-May-22 07:33N 34°41' E 135°11'2 2.4
2016-May-22 06:33N 34°38' E 135°11'2 2.4
2016-May-22 05:33N 34°41' E 135°11'2 1.8
2016-May-22 04:33N 34°39' E 135°11'2 2.1
2016-May-22 03:33N 34°38' E 135°09'3 0.2
2016-May-21 13:32N 34°41' E 135°11'0 0.0
2016-May-21 12:26N 34°41' E 135°11'3 4.0
2016-May-21 11:33N 34°38' E 135°09'0 0.2
2016-May-21 10:33N 34°38' E 135°09'3 3.0
2016-May-21 09:25N 34°41' E 135°11'5 6.3
2016-May-21 08:34N 34°37' E 135°06'5 5.3
2016-May-21 07:33N 34°41' E 135°11'3 2.7
2016-May-21 06:33N 34°38' E 135°10'3 2.7
2016-May-21 05:33N 34°41' E 135°11'0 0.1
2016-May-21 04:33N 34°41' E 135°11'6 6.3
2016-May-21 03:33N 34°37' E 135°05'6 6.3
2016-May-21 02:33N 34°41' E 135°11'0 0.0
2016-May-21 01:29N 34°41' E 135°11'0 0.0
2016-May-21 00:29N 34°41' E 135°11'0 0.0
2016-May-20 23:29N 34°41' E 135°11'0 0.0
2016-May-20 22:23N 34°41' E 135°11'0 0.0
2016-May-20 21:29N 34°41' E 135°11'0 0.0
2016-May-20 20:23N 34°41' E 135°11'0 0.0
2016-May-20 19:29N 34°41' E 135°11'0 0.0
2016-May-20 18:29N 34°41' E 135°11'0 0.0
2016-May-20 17:29N 34°41' E 135°11'0 0.0
2016-May-20 16:29N 34°41' E 135°11'0 0.0
2016-May-20 15:29N 34°41' E 135°11'0 0.0
2016-May-20 14:29N 34°41' E 135°11'0 0.0
2016-May-20 13:29N 34°41' E 135°11'0 0.0
2016-May-20 12:29N 34°41' E 135°11'3 3.3
2016-May-20 11:33N 34°38' E 135°09'0 0.2
2016-May-20 10:33N 34°38' E 135°10'3 2.9
2016-May-20 09:33N 34°41' E 135°11'5 4.8
2016-May-20 08:33N 34°37' E 135°07'  
Track history (hours):
 
Tides and Currents Weather Stations Pressure Air Temp Water Temp Dewpoint Dewpoint Depression Visibility Wind Speed Wind Dir Waves Ship Positions

Concerto

Last reported at 2016-May-30 08:33 UTC. Time now 2016-May-30 08:48 UTC.
Position N 34°37' E 135°07'.

Length 74 m; draft 3 m.

Type: Passenger vessel. MMSI: 431000448.

Date/timePositionNaut miles runAvg speedWind from/ knotsBaromVisibWave heightAir tempDewpointWater temp
2016-May-30 08:33N 34°37' E 135°07'5 5.0
2016-May-30 07:33N 34°41' E 135°11'3 2.5
2016-May-30 06:33N 34°38' E 135°11'3 2.5
2016-May-30 05:33N 34°41' E 135°11'1 1.5
2016-May-30 04:33N 34°39' E 135°11'2 1.9
2016-May-30 03:33N 34°38' E 135°10'3 3.0
2016-May-30 02:33N 34°41' E 135°11'0 0.0
2016-May-30 01:33N 34°41' E 135°11'0 0.0
2016-May-30 00:33N 34°41' E 135°11'0 0.0
2016-May-29 23:33N 34°41' E 135°11'0 0.0
2016-May-29 22:21N 34°41' E 135°11'0 0.0
2016-May-29 21:33N 34°41' E 135°11'0 0.0
2016-May-29 20:33N 34°41' E 135°11'0 0.0
2016-May-29 19:27N 34°41' E 135°11'0 0.0
2016-May-29 18:33N 34°41' E 135°11'0 0.0
2016-May-29 17:33N 34°41' E 135°11'0 0.0
2016-May-29 16:33N 34°41' E 135°11'0 0.0
2016-May-29 15:33N 34°41' E 135°11'0 0.0
2016-May-29 14:33N 34°41' E 135°11'0 0.0
2016-May-29 13:33N 34°41' E 135°11'0 0.0
2016-May-29 12:33N 34°41' E 135°11'3 3.5
2016-May-29 11:33N 34°38' E 135°09'0 0.4
2016-May-29 10:33N 34°38' E 135°09'3 3.1
2016-May-29 09:29N 34°41' E 135°11'5 5.5
2016-May-29 08:33N 34°37' E 135°07'5 4.8
2016-May-29 07:29N 34°41' E 135°11'2 2.7
2016-May-29 06:33N 34°38' E 135°11'2 2.5
2016-May-29 05:33N 34°41' E 135°11'2 1.7
2016-May-29 04:33N 34°39' E 135°11'2 1.8
2016-May-29 03:33N 34°38' E 135°10'3 3.0
2016-May-29 02:32N 34°41' E 135°11'0 0.0
2016-May-29 01:32N 34°41' E 135°11'0 0.0
2016-May-29 00:26N 34°41' E 135°11'0 0.0
2016-May-28 23:26N 34°41' E 135°11'0 0.0
2016-May-28 22:32N 34°41' E 135°11'0 0.0
2016-May-28 21:32N 34°41' E 135°11'0 0.0
2016-May-28 20:32N 34°41' E 135°11'0 0.0
2016-May-28 19:32N 34°41' E 135°11'0 0.0
2016-May-28 18:14N 34°41' E 135°11'0 0.0
2016-May-28 17:32N 34°41' E 135°11'0 0.0
2016-May-28 16:32N 34°41' E 135°11'0 0.0
2016-May-28 15:32N 34°41' E 135°11'0 0.0
2016-May-28 14:32N 34°41' E 135°11'0 0.0
2016-May-28 13:32N 34°41' E 135°11'0 0.0
2016-May-28 12:32N 34°41' E 135°11'4 3.9
2016-May-28 11:33N 34°37' E 135°09'0 0.4
2016-May-28 10:34N 34°38' E 135°09'3 2.9
2016-May-28 09:24N 34°41' E 135°11'5 5.9
2016-May-28 08:33N 34°37' E 135°07'5 5.0
2016-May-28 07:33N 34°41' E 135°11'2 2.3
2016-May-28 06:33N 34°39' E 135°11'2 2.3
2016-May-28 05:33N 34°41' E 135°11'2 1.5
2016-May-28 04:33N 34°39' E 135°11'2 2.3
2016-May-28 03:33N 34°38' E 135°09'3 3.0
2016-May-28 02:29N 34°41' E 135°11'0 0.0
2016-May-27 12:29N 34°41' E 135°11'4 3.8
2016-May-27 11:33N 34°38' E 135°09'0 0.3
2016-May-27 10:34N 34°38' E 135°09'3 3.2
2016-May-27 09:32N 34°41' E 135°11'5 5.1
2016-May-27 08:34N 34°37' E 135°08'5 4.8
2016-May-27 07:32N 34°41' E 135°11'3 2.6
2016-May-27 06:33N 34°38' E 135°11'3 2.6
2016-May-27 05:33N 34°41' E 135°11'2 1.6
2016-May-27 04:34N 34°39' E 135°11'2 1.9
2016-May-27 03:34N 34°38' E 135°10'3 2.9
2016-May-27 02:29N 34°41' E 135°11'0 0.0
2016-May-27 01:29N 34°41' E 135°11'0 0.0
2016-May-27 00:29N 34°41' E 135°11'0 0.0
2016-May-26 23:29N 34°41' E 135°11'0 0.0
2016-May-26 22:29N 34°41' E 135°11'0 0.0
2016-May-26 21:29N 34°41' E 135°11'0 0.0
2016-May-26 20:29N 34°41' E 135°11'0 0.0
2016-May-26 19:23N 34°41' E 135°11'0 0.0
2016-May-26 18:29N 34°41' E 135°11'0 0.0
2016-May-26 17:29N 34°41' E 135°11'0 0.0
2016-May-26 16:29N 34°41' E 135°11'0 0.0
2016-May-26 15:29N 34°41' E 135°11'0 0.0
2016-May-26 14:29N 34°41' E 135°11'0 0.0
2016-May-26 13:29N 34°41' E 135°11'0 0.0
2016-May-26 12:29N 34°41' E 135°11'3 3.4
2016-May-26 11:33N 34°38' E 135°10'1 0.6
2016-May-26 10:34N 34°38' E 135°11'3 2.5
2016-May-26 09:30N 34°41' E 135°11'5 5.2
2016-May-26 08:33N 34°37' E 135°07'5 4.6
2016-May-26 07:29N 34°41' E 135°11'2 2.6
2016-May-26 06:33N 34°38' E 135°11'2 2.4
2016-May-26 05:33N 34°41' E 135°11'2 1.9
2016-May-26 04:33N 34°39' E 135°11'2 1.9
2016-May-26 03:33N 34°38' E 135°10'3 2.6
2016-May-26 02:16N 34°41' E 135°11'0 0.0
2016-May-26 01:28N 34°41' E 135°11'0 0.0
2016-May-26 00:28N 34°41' E 135°11'0 0.0
2016-May-25 23:28N 34°41' E 135°11'0 0.0
2016-May-25 22:28N 34°41' E 135°11'0 0.0
2016-May-25 21:28N 34°41' E 135°11'0 0.0
2016-May-25 20:28N 34°41' E 135°11'0 0.0
2016-May-25 19:28N 34°41' E 135°11'0 0.0
2016-May-25 18:28N 34°41' E 135°11'0 0.0
2016-May-25 17:28N 34°41' E 135°11'0 0.0
2016-May-25 16:28N 34°41' E 135°11'0 0.0
2016-May-25 15:28N 34°41' E 135°11'0 0.0
2016-May-25 14:28N 34°41' E 135°11'0 0.0
2016-May-25 13:28N 34°41' E 135°11'0 0.0
2016-May-25 12:28N 34°41' E 135°11'3 3.7
2016-May-25 11:33N 34°38' E 135°10'0 0.2
2016-May-25 10:33N 34°38' E 135°09'3 3.3
2016-May-25 09:31N 34°41' E 135°11'5 5.2
2016-May-25 08:33N 34°37' E 135°07'5 5.1
2016-May-25 07:33N 34°41' E 135°11'2 2.3
2016-May-25 06:33N 34°39' E 135°11'2 2.3
2016-May-25 05:33N 34°41' E 135°11'2 2.0
2016-May-25 04:33N 34°39' E 135°11'2 1.9
2016-May-25 03:33N 34°38' E 135°09'1 0.0
2016-May-24 11:33N 34°38' E 135°10'1 0.6
2016-May-24 10:33N 34°38' E 135°10'3 2.6
2016-May-24 09:32N 34°41' E 135°11'4 4.0
2016-May-24 08:33N 34°37' E 135°09'4 3.1
2016-May-24 07:18N 34°41' E 135°11'2 2.7
2016-May-24 06:33N 34°39' E 135°11'2 2.0
2016-May-24 05:33N 34°41' E 135°11'2 1.6
2016-May-24 04:33N 34°39' E 135°11'2 1.7
2016-May-24 03:33N 34°38' E 135°10'3 2.9
2016-May-24 02:30N 34°41' E 135°11'4 0.2
2016-May-23 11:33N 34°38' E 135°10'1 0.6
2016-May-23 10:33N 34°38' E 135°09'3 2.8
2016-May-23 09:28N 34°41' E 135°11'5 5.2
2016-May-23 08:33N 34°37' E 135°07'5 4.7
2016-May-23 07:33N 34°41' E 135°11'2 2.4
2016-May-23 06:33N 34°38' E 135°11'2 2.3
2016-May-23 05:33N 34°41' E 135°11'2 1.8
2016-May-23 04:32N 34°39' E 135°11'2 1.8
2016-May-23 03:33N 34°38' E 135°10'3 2.9
2016-May-23 02:28N 34°41' E 135°11'4 0.3
2016-May-22 11:33N 34°37' E 135°09'1 1.2
2016-May-22 10:33N 34°38' E 135°10'3 3.0
2016-May-22 09:32N 34°41' E 135°11'5 5.0
2016-May-22 08:33N 34°37' E 135°07'5 4.9
2016-May-22 07:33N 34°41' E 135°11'2 2.4
2016-May-22 06:33N 34°38' E 135°11'2 2.4
2016-May-22 05:33N 34°41' E 135°11'2 1.8
2016-May-22 04:33N 34°39' E 135°11'2 2.1
2016-May-22 03:33N 34°38' E 135°09'3 0.2
2016-May-21 13:32N 34°41' E 135°11'0 0.0
2016-May-21 12:26N 34°41' E 135°11'3 4.0
2016-May-21 11:33N 34°38' E 135°09'0 0.2
2016-May-21 10:33N 34°38' E 135°09'3 3.0
2016-May-21 09:25N 34°41' E 135°11'5 6.3
2016-May-21 08:34N 34°37' E 135°06'5 5.3
2016-May-21 07:33N 34°41' E 135°11'3 2.7
2016-May-21 06:33N 34°38' E 135°10'3 2.7
2016-May-21 05:33N 34°41' E 135°11'0 0.1
2016-May-21 04:33N 34°41' E 135°11'6 6.3
2016-May-21 03:33N 34°37' E 135°05'6 6.3
2016-May-21 02:33N 34°41' E 135°11'0 0.0
2016-May-21 01:29N 34°41' E 135°11'0 0.0
2016-May-21 00:29N 34°41' E 135°11'0 0.0
2016-May-20 23:29N 34°41' E 135°11'0 0.0
2016-May-20 22:23N 34°41' E 135°11'0 0.0
2016-May-20 21:29N 34°41' E 135°11'0 0.0
2016-May-20 20:23N 34°41' E 135°11'0 0.0
2016-May-20 19:29N 34°41' E 135°11'0 0.0
2016-May-20 18:29N 34°41' E 135°11'0 0.0
2016-May-20 17:29N 34°41' E 135°11'0 0.0
2016-May-20 16:29N 34°41' E 135°11'0 0.0
2016-May-20 15:29N 34°41' E 135°11'0 0.0
2016-May-20 14:29N 34°41' E 135°11'0 0.0
2016-May-20 13:29N 34°41' E 135°11'0 0.0
2016-May-20 12:29N 34°41' E 135°11'3 3.3
2016-May-20 11:33N 34°38' E 135°09'0 0.2
2016-May-20 10:33N 34°38' E 135°10'3 2.9
2016-May-20 09:33N 34°41' E 135°11'5 4.8
2016-May-20 08:33N 34°37' E 135°07'  

Dump ship's entire track history